Time;durP1;ratioP1;P1;durP2;ratioP2;P2;SDS_P1;SDS_P2;PMS_P1;PMS_P2;Temp;Humidity;BMP_temperature;BMP_pressure;BME280_temperature;BME280_humidity;BME280_pressure;Samples;Min_cycle;Max_cycle;Signal;HPM_P1;HPM_P2
2021/11/25 00:06:02;;;;;;;18.90;14.50;;;;;;;4.10;82.55;99670.30;435069;1312;142871;-68
2021/11/25 00:16:09;;;;;;;21.60;15.00;;;;;;;4.12;82.26;99666.76;436026;1310;142094;-62
2021/11/25 00:26:15;;;;;;;;;;;;;;;4.06;82.07;99652.77;435996;1309;143363;-62
2021/11/25 00:36:22;;;;;;;23.60;15.80;;;;;;;3.98;81.88;99652.70;435165;1310;127990;-61
2021/11/25 00:46:29;;;;;;;23.20;16.70;;;;;;;3.89;81.80;99653.36;435922;1309;141687;-64
2021/11/25 00:56:36;;;;;;;25.20;17.30;;;;;;;3.81;81.88;99647.77;428323;1307;141584;-63
2021/11/25 01:06:42;;;;;;;24.70;17.50;;;;;;;3.75;81.73;99635.34;429952;1309;142361;-59
2021/11/25 01:16:48;;;;;;;24.70;16.60;;;;;;;3.66;81.52;99612.09;433856;1309;141792;-59
2021/11/25 01:26:55;;;;;;;22.30;16.00;;;;;;;3.52;81.40;99599.77;434724;1309;141294;-59
2021/11/25 01:37:02;;;;;;;22.60;16.90;;;;;;;3.15;80.98;99593.23;430954;1309;142410;-60
2021/11/25 01:47:08;;;;;;;24.40;15.90;;;;;;;2.61;81.19;99578.34;434943;1312;141422;-60
2021/11/25 01:57:15;;;;;;;23.50;17.50;;;;;;;2.12;81.21;99563.58;434975;1309;141126;-60
2021/11/25 02:07:20;;;;;;;;;;;;;;;1.72;81.53;99551.08;435755;1309;143106;-59
2021/11/25 02:17:27;;;;;;;27.30;19.10;;;;;;;1.39;81.80;99546.13;435304;1309;128636;-60
2021/11/25 02:27:33;;;;;;;32.20;22.00;;;;;;;1.18;82.34;99538.56;433935;1310;141462;-61
2021/11/25 02:37:40;;;;;;;34.90;23.40;;;;;;;1.05;82.36;99526.13;435795;1309;142256;-60
2021/11/25 02:47:47;;;;;;;30.70;23.70;;;;;;;0.82;82.34;99507.42;435060;1309;142018;-60
2021/11/25 02:57:53;;;;;;;30.00;22.70;;;;;;;0.59;82.31;99494.36;436041;1309;145843;-60
2021/11/25 03:08:03;;;;;;;30.40;22.00;;;;;;;0.40;82.43;99489.48;435888;1309;142339;-60
2021/11/25 03:18:11;;;;;;;37.70;24.30;;;;;;;0.21;82.82;99480.26;433885;1309;142479;-60
2021/11/25 03:28:19;;;;;;;34.30;24.70;;;;;;;0.02;82.76;99464.70;434580;1309;215744;-61
2021/11/25 03:38:25;;;;;;;34.10;26.10;;;;;;;-0.15;82.91;99448.89;435868;1309;142152;-60
2021/11/25 03:48:32;;;;;;;34.40;24.50;;;;;;;-0.34;82.94;99433.30;434980;1310;142224;-60
2021/11/25 03:58:38;;;;;;;36.10;25.80;;;;;;;-0.50;83.11;99411.48;435816;1306;142129;-60
2021/11/25 04:08:45;;;;;;;42.60;28.80;;;;;;;-0.66;83.54;99394.26;425811;1310;142623;-59
2021/11/25 04:18:52;;;;;;;40.60;30.40;;;;;;;-0.80;83.47;99374.95;434907;1312;141736;-60
2021/11/25 04:28:58;;;;;;;46.40;32.10;;;;;;;-0.93;83.62;99362.48;434900;1310;143808;-60
2021/11/25 04:39:08;;;;;;;43.90;31.00;;;;;;;-1.05;83.59;99352.79;426420;1312;142353;-60
2021/11/25 04:49:15;;;;;;;46.80;30.40;;;;;;;-1.16;84.09;99335.64;433633;1310;141821;-60
2021/11/25 04:59:20;;;;;;;;;;;;;;;-1.28;83.89;99317.16;424154;1309;142223;-59
2021/11/25 05:09:27;;;;;;;46.50;31.30;;;;;;;-1.42;84.07;99314.67;418270;1312;127950;-60
2021/11/25 05:19:34;;;;;;;42.30;31.70;;;;;;;-1.55;84.63;99295.18;418613;1310;141915;-60
2021/11/25 05:29:38;;;;;;;;;;;;;;;-1.67;84.46;99280.82;426760;1310;142758;-60
2021/11/25 05:39:45;;;;;;;42.80;29.70;;;;;;;-1.78;84.78;99261.62;434954;1309;128677;-60
2021/11/25 05:49:52;;;;;;;45.10;27.50;;;;;;;-1.84;84.93;99248.00;434399;1310;141629;-60
2021/11/25 05:59:58;;;;;;;39.60;28.10;;;;;;;-1.88;84.97;99238.46;433394;1312;141897;-59
2021/11/25 06:10:06;;;;;;;35.70;25.40;;;;;;;-1.91;85.22;99239.71;426333;1309;142125;-60
2021/11/25 06:20:14;;;;;;;38.60;26.50;;;;;;;-1.96;85.27;99224.04;433759;1311;142187;-60
2021/11/25 06:30:20;;;;;;;37.20;27.20;;;;;;;-1.95;85.36;99228.13;434159;1311;141895;-61
2021/11/25 06:40:29;;;;;;;39.80;25.30;;;;;;;-1.87;85.43;99219.75;432386;1307;141637;-60
2021/11/25 06:50:40;;;;;;;34.60;25.80;;;;;;;-1.74;85.40;99219.84;434787;1307;144035;-60
2021/11/25 07:00:44;;;;;;;;;;;;;;;-1.48;85.49;99200.44;435275;1309;141711;-61
2021/11/25 07:10:51;;;;;;;34.50;23.50;;;;;;;-0.81;85.20;99190.70;429799;1306;128078;-59
2021/11/25 07:20:58;;;;;;;28.60;21.80;;;;;;;0.54;84.07;99191.27;432965;1312;143663;-60
2021/11/25 07:31:05;;;;;;;27.40;22.00;;;;;;;2.34;82.19;99182.42;435851;1309;142638;-60
2021/11/25 07:41:11;;;;;;;26.70;22.50;;;;;;;4.78;79.54;99168.92;424769;1310;142053;-60
2021/11/25 07:51:17;;;;;;;25.40;20.40;;;;;;;6.70;76.40;99148.61;431350;1310;142292;-61
2021/11/25 08:01:23;;;;;;;21.00;18.40;;;;;;;8.19;73.73;99139.48;434961;1312;145490;-60
2021/11/25 08:11:31;;;;;;;21.80;19.40;;;;;;;9.62;71.19;99136.77;428069;1310;142662;-60
2021/11/25 08:21:37;;;;;;;25.60;21.90;;;;;;;10.68;68.60;99119.53;435126;1306;142051;-61
2021/11/25 08:31:43;;;;;;;21.70;19.30;;;;;;;11.61;66.39;99101.87;421329;1312;141653;-64
2021/11/25 08:41:49;;;;;;;22.00;17.90;;;;;;;12.72;64.31;99091.69;432965;1309;141982;-60
2021/11/25 08:51:57;;;;;;;19.40;17.30;;;;;;;13.52;61.65;99083.40;433349;1312;142534;-69
2021/11/25 09:02:03;;;;;;;19.10;17.10;;;;;;;14.34;59.64;99066.63;433570;1311;141743;-62
2021/11/25 09:12:10;;;;;;;19.20;17.20;;;;;;;14.84;57.38;99064.86;434234;1312;141091;-60
2021/11/25 09:22:18;;;;;;;22.70;19.30;;;;;;;13.63;56.43;99057.31;420333;1312;20001715;-58
2021/11/25 09:32:25;;;;;;;22.40;17.20;;;;;;;10.08;58.10;99038.99;434828;1310;141833;-59
2021/11/25 09:42:31;;;;;;;20.60;17.50;;;;;;;7.69;59.29;99027.83;435066;1309;141780;-58
2021/11/25 09:52:37;;;;;;;25.20;18.60;;;;;;;6.15;61.09;99011.82;435039;1312;142663;-57
2021/11/25 10:02:44;;;;;;;25.20;18.00;;;;;;;5.31;62.14;98995.54;432667;1308;141202;-63
2021/11/25 10:12:55;;;;;;;27.10;19.90;;;;;;;4.59;62.72;98973.14;435207;1308;141290;-63
2021/11/25 10:23:19;;;;;;;23.50;18.00;;;;;;;4.17;64.06;98954.70;435906;1307;141844;-65
2021/11/25 10:33:30;;;;;;;24.60;18.70;;;;;;;3.89;64.43;98941.62;433826;1309;141642;-62
2021/11/25 10:43:36;;;;;;;24.60;18.30;;;;;;;3.67;65.31;98919.27;428728;1312;141536;-60
2021/11/25 10:54:04;;;;;;;25.60;17.40;;;;;;;3.82;66.08;98913.69;428128;1312;142308;-65
2021/11/25 11:04:11;;;;;;;22.30;17.20;;;;;;;4.29;65.74;98885.84;435915;1309;140589;-61
2021/11/25 11:14:29;;;;;;;25.00;17.70;;;;;;;4.31;65.74;98872.23;434140;1310;141242;-62
2021/11/25 11:24:38;;;;;;;25.20;18.30;;;;;;;4.05;66.19;98854.11;435116;1310;165789;-63
2021/11/25 11:34:46;;;;;;;23.60;17.50;;;;;;;3.91;66.68;98839.20;420128;1312;140709;-64
2021/11/25 11:44:54;;;;;;;23.90;16.60;;;;;;;3.75;67.61;98825.59;428492;1312;146045;-59
2021/11/25 11:55:04;;;;;;;21.60;15.70;;;;;;;3.68;67.99;98806.89;435868;1309;142686;-60
2021/11/25 12:05:12;;;;;;;20.00;15.70;;;;;;;3.66;68.61;98784.47;433446;1313;142663;-63
2021/11/25 12:15:18;;;;;;;;;;;;;;;3.66;68.59;98766.30;435103;1310;143527;-60
2021/11/25 12:25:41;;;;;;;25.10;18.20;;;;;;;3.68;68.98;98745.77;435962;1309;128049;-62
2021/11/25 12:35:48;;;;;;;23.10;17.80;;;;;;;3.69;69.10;98736.23;432568;1308;141815;-58
2021/11/25 12:45:57;;;;;;;26.10;16.60;;;;;;;3.53;69.24;98716.92;436007;1309;145672;-58
2021/11/25 12:56:13;;;;;;;25.90;18.60;;;;;;;3.33;69.60;98692.61;435018;1316;141676;-58
2021/11/25 13:06:19;;;;;;;31.30;20.10;;;;;;;3.19;70.09;98675.62;432803;1312;142046;-68
2021/11/25 13:16:25;;;;;;;27.10;19.40;;;;;;;3.15;70.34;98668.23;427307;1312;186763;-64
2021/11/25 13:26:50;;;;;;;29.10;20.50;;;;;;;3.11;70.71;98652.69;427994;1313;141609;-68
2021/11/25 13:37:00;;;;;;;30.80;19.40;;;;;;;3.19;71.14;98652.81;435923;1314;141907;-63
2021/11/25 13:47:10;;;;;;;27.60;20.00;;;;;;;3.37;71.12;98647.25;434628;1312;142530;-58
2021/11/25 13:57:20;;;;;;;30.60;19.20;;;;;;;3.27;71.04;98641.36;425631;1313;142203;-57
2021/11/25 14:07:29;;;;;;;28.20;19.90;;;;;;;3.12;71.42;98641.91;431320;1315;142108;-59
2021/11/25 14:17:41;;;;;;;30.20;20.10;;;;;;;2.95;71.56;98638.89;433895;1313;143843;-64
2021/11/25 14:38:18;;;;;;;37.20;24.80;;;;;;;2.83;72.20;98624.96;432947;1310;142367;-61
2021/11/25 14:48:28;;;;;;;37.30;25.10;;;;;;;2.78;72.39;98619.66;419288;1310;142061;-68
2021/11/25 14:58:48;;;;;;;34.30;23.10;;;;;;;2.74;72.59;98613.27;434932;1311;141574;-63
2021/11/25 15:08:55;;;;;;;38.00;24.60;;;;;;;2.70;72.75;98606.88;426859;1312;143557;-63
2021/11/25 15:19:03;;;;;;;35.50;23.90;;;;;;;2.67;72.92;98613.96;432565;1310;141664;-61
2021/11/25 15:29:10;;;;;;;34.90;24.30;;;;;;;2.66;73.34;98612.23;434725;1310;143684;-61
2021/11/25 15:39:21;;;;;;;42.00;27.00;;;;;;;2.64;73.21;98595.27;421565;1312;142411;-62
2021/11/25 15:49:27;;;;;;;42.60;29.50;;;;;;;2.63;73.51;98584.42;431983;1309;141443;-62
2021/11/25 15:59:33;;;;;;;50.20;30.20;;;;;;;2.59;73.57;98594.63;429867;1310;143163;-61
2021/11/25 16:09:40;;;;;;;38.20;24.20;;;;;;;2.52;73.72;98591.12;420259;1310;141939;-60
2021/11/25 16:19:51;;;;;;;43.70;25.90;;;;;;;2.47;73.98;98585.30;421207;1312;142469;-61
2021/11/25 16:29:58;;;;;;;41.30;26.60;;;;;;;2.41;74.02;98575.23;427589;1312;145485;-61
2021/11/25 16:40:06;;;;;;;73.60;44.50;;;;;;;2.36;74.21;98565.79;423879;1310;142052;-61
2021/11/25 16:50:13;;;;;;;64.60;32.50;;;;;;;2.35;74.24;98566.17;433361;1310;144225;-64
2021/11/25 17:00:23;;;;;;;67.80;38.40;;;;;;;2.35;74.33;98550.13;431651;1310;143283;-62
2021/11/25 17:10:30;;;;;;;49.20;31.00;;;;;;;2.36;74.13;98551.96;434680;1307;142625;-62
2021/11/25 17:20:36;;;;;;;39.20;25.90;;;;;;;2.30;74.08;98551.73;422207;1312;143937;-62
2021/11/25 17:30:42;;;;;;;99.80;46.40;;;;;;;2.24;73.94;98520.39;430908;1307;142366;-63
2021/11/25 17:40:49;;;;;;;59.30;32.20;;;;;;;2.25;74.12;98522.09;432658;1312;142135;-62
2021/11/25 17:50:56;;;;;;;50.60;32.60;;;;;;;2.27;73.90;98502.36;422965;1311;143872;-61
2021/11/25 18:01:02;;;;;;;85.00;40.60;;;;;;;2.28;74.08;98522.13;421159;1312;142949;-61
2021/11/25 18:11:09;;;;;;;62.00;37.80;;;;;;;2.24;73.97;98549.75;426047;1309;142176;-62
2021/11/25 18:21:15;;;;;;;50.80;30.40;;;;;;;2.19;74.07;98541.55;419262;1312;142354;-62
2021/11/25 18:31:21;;;;;;;74.40;38.60;;;;;;;2.12;74.00;98519.39;434718;1310;142443;-63
2021/11/25 18:41:27;;;;;;;46.80;29.00;;;;;;;2.12;74.12;98522.01;423426;1311;142463;-62
2021/11/25 18:51:34;;;;;;;49.50;31.40;;;;;;;2.06;74.12;98532.48;423036;1312;142057;-62
2021/11/25 19:01:40;;;;;;;47.70;32.80;;;;;;;2.04;74.24;98521.32;430618;1312;142126;-66
2021/11/25 19:11:47;;;;;;;56.80;35.10;;;;;;;2.03;74.26;98509.45;432323;1309;141510;-66
2021/11/25 19:21:53;;;;;;;50.70;34.20;;;;;;;2.03;74.27;98504.46;421753;1308;277689;-67
2021/11/25 19:32:02;;;;;;;47.60;32.60;;;;;;;1.98;74.28;98501.59;435660;1309;142710;-65
2021/11/25 19:42:09;;;;;;;47.20;32.10;;;;;;;1.99;74.41;98488.25;432849;1312;141688;-66
2021/11/25 19:52:16;;;;;;;52.30;33.00;;;;;;;1.99;74.57;98488.59;425439;1309;143349;-66
2021/11/25 20:02:23;;;;;;;45.80;30.10;;;;;;;1.90;74.45;98496.23;419714;1313;142653;-66
2021/11/25 20:12:29;;;;;;;45.30;30.20;;;;;;;1.83;74.80;98501.75;423443;1309;141649;-70
2021/11/25 20:22:36;;;;;;;47.30;29.40;;;;;;;1.79;74.88;98520.23;434990;1310;141859;-65
2021/11/25 20:32:42;;;;;;;36.50;26.90;;;;;;;1.83;74.73;98519.86;434228;1310;142450;-64
2021/11/25 20:42:49;;;;;;;32.30;23.70;;;;;;;1.75;74.17;98519.89;423666;1309;141794;-65
2021/11/25 20:52:56;;;;;;;35.80;24.50;;;;;;;1.60;73.97;98527.08;423243;1309;142002;-65
2021/11/25 21:03:02;;;;;;;34.40;23.40;;;;;;;1.52;73.87;98534.52;422172;1309;143856;-65
2021/11/25 21:13:09;;;;;;;34.00;22.90;;;;;;;1.46;73.92;98528.23;419610;1309;142995;-66
2021/11/25 21:23:16;;;;;;;31.10;21.40;;;;;;;1.38;73.81;98520.95;420857;1307;143427;-65
2021/11/25 21:33:22;;;;;;;36.90;26.30;;;;;;;1.31;73.87;98502.80;423118;1311;142554;-66
2021/11/25 21:43:29;;;;;;;35.80;24.10;;;;;;;1.25;73.92;98503.74;427066;1310;141940;-66
2021/11/25 21:53:35;;;;;;;37.20;25.60;;;;;;;1.24;74.21;98500.02;430830;1309;141400;-66
2021/11/25 22:03:41;;;;;;;38.30;26.50;;;;;;;1.26;74.26;98501.99;433593;1310;143378;-65
2021/11/25 22:13:48;;;;;;;34.50;26.20;;;;;;;1.21;74.39;98495.29;425754;1310;142921;-65
2021/11/25 22:34:18;;;;;;;34.10;24.30;;;;;;;1.14;74.69;98482.35;433636;1310;142804;-60
2021/11/25 22:44:25;;;;;;;35.60;24.00;;;;;;;1.17;74.65;98468.25;427270;1308;142218;-63
2021/11/25 22:54:32;;;;;;;33.10;24.80;;;;;;;1.18;74.54;98473.37;435043;1306;142515;-61
2021/11/25 23:04:38;;;;;;;35.60;25.20;;;;;;;1.16;74.67;98473.81;425746;1309;141696;-62
2021/11/25 23:14:44;;;;;;;33.40;22.90;;;;;;;1.15;74.72;98466.44;435206;1309;144880;-61
2021/11/25 23:24:50;;;;;;;35.10;23.80;;;;;;;1.18;74.68;98459.25;423645;1309;141687;-64
2021/11/25 23:34:56;;;;;;;35.20;25.40;;;;;;;1.20;74.68;98440.19;435496;1309;142288;-62
2021/11/25 23:45:04;;;;;;;37.40;27.10;;;;;;;1.19;74.76;98429.88;435255;1309;142796;-67
2021/11/25 23:55:13;;;;;;;37.40;24.10;;;;;;;1.15;74.86;98427.15;434982;1304;142085;-65
